Time;durP1;ratioP1;P1;durP2;ratioP2;P2;SDS_P1;SDS_P2;PMS_P1;PMS_P2;Temp;Humidity;BMP_temperature;BMP_pressure;BME280_temperature;BME280_humidity;BME280_pressure;Samples;Min_cycle;Max_cycle;Signal;HPM_P1;HPM_P2
2022/11/02 00:00:13;;;;;;;7.63;2.60;;;22.10;47.10;;;;;;5124111;28;20463;-81
2022/11/02 00:02:43;;;;;;;5.00;2.00;;;22.10;47.00;;;;;;5119547;27;20495;-81
2022/11/02 00:05:12;;;;;;;3.23;1.80;;;22.10;47.40;;;;;;5098402;28;20452;-81
2022/11/02 00:07:40;;;;;;;7.67;2.53;;;22.10;47.20;;;;;;5113365;28;20467;-81
2022/11/02 00:10:09;;;;;;;5.27;2.30;;;22.10;47.20;;;;;;5133807;28;20504;-81
2022/11/02 00:12:37;;;;;;;5.63;2.30;;;22.10;47.30;;;;;;5130451;28;20456;-81
2022/11/02 00:15:06;;;;;;;4.80;1.90;;;22.10;47.20;;;;;;5114284;28;20505;-81
2022/11/02 00:17:34;;;;;;;5.87;1.80;;;22.00;47.20;;;;;;5116374;28;20946;-81
2022/11/02 00:20:04;;;;;;;3.77;2.20;;;22.00;47.20;;;;;;5120120;28;20466;-81
2022/11/02 00:22:32;;;;;;;6.77;2.37;;;22.00;47.20;;;;;;5117443;28;20459;-82
2022/11/02 00:25:02;;;;;;;7.23;1.83;;;22.00;47.10;;;;;;5124069;27;20442;-81
2022/11/02 00:27:30;;;;;;;6.10;2.03;;;22.00;47.20;;;;;;5139457;27;20466;-82
2022/11/02 00:29:58;;;;;;;5.20;1.87;;;22.00;47.30;;;;;;5125793;27;20509;-81
2022/11/02 00:32:26;;;;;;;7.63;2.57;;;22.00;47.20;;;;;;5126821;27;20422;-82
2022/11/02 00:34:54;;;;;;;4.40;2.10;;;22.00;47.30;;;;;;5120714;27;20448;-81
2022/11/02 00:37:24;;;;;;;10.10;2.37;;;22.00;47.40;;;;;;5122339;27;20497;-81
2022/11/02 00:39:52;;;;;;;3.73;2.07;;;22.00;47.30;;;;;;5119621;28;20471;-82
2022/11/02 00:42:20;;;;;;;6.77;1.93;;;22.00;47.50;;;;;;5119939;28;20436;-81
2022/11/02 00:44:48;;;;;;;5.93;2.30;;;22.00;47.40;;;;;;5120716;28;20444;-81
2022/11/02 00:47:16;;;;;;;5.70;2.00;;;22.00;47.40;;;;;;5120742;28;20451;-81
2022/11/02 00:49:44;;;;;;;7.20;2.40;;;22.00;47.30;;;;;;5121451;28;20481;-82
2022/11/02 00:52:12;;;;;;;6.37;2.07;;;22.00;47.30;;;;;;5121202;28;20444;-80
2022/11/02 00:54:43;;;;;;;4.17;1.63;;;22.00;47.30;;;;;;5119117;27;20459;-81
2022/11/02 00:57:10;;;;;;;4.20;2.07;;;22.00;48.00;;;;;;5125081;27;20497;-81
2022/11/02 00:59:39;;;;;;;7.57;2.40;;;22.00;48.10;;;;;;5121015;27;20439;-81
2022/11/02 01:02:06;;;;;;;5.47;2.10;;;22.00;47.50;;;;;;5105325;27;20452;-82
2022/11/02 01:04:35;;;;;;;5.57;2.13;;;21.90;47.50;;;;;;5127887;27;20505;-82
2022/11/02 01:07:03;;;;;;;10.97;6.60;;;21.90;47.70;;;;;;5121037;28;20422;-82
2022/11/02 01:09:32;;;;;;;12.10;6.20;;;21.90;47.90;;;;;;5122739;27;20446;-82
2022/11/02 01:12:01;;;;;;;10.17;5.77;;;21.90;47.80;;;;;;5111578;27;20466;-82
2022/11/02 01:14:29;;;;;;;9.97;5.50;;;21.90;47.90;;;;;;5132206;27;20477;-82
2022/11/02 01:16:58;;;;;;;10.00;4.50;;;21.90;47.90;;;;;;5123435;27;20439;-82
2022/11/02 01:19:26;;;;;;;6.87;4.43;;;21.90;48.10;;;;;;5119555;27;20474;-80
2022/11/02 01:21:54;;;;;;;11.93;4.37;;;21.90;47.90;;;;;;5140887;27;20458;-81
2022/11/02 01:24:22;;;;;;;9.53;4.00;;;21.90;48.20;;;;;;5134879;27;20471;-81
2022/11/02 01:26:51;;;;;;;7.73;4.37;;;21.80;48.20;;;;;;5109518;27;20463;-82
2022/11/02 01:29:20;;;;;;;8.20;3.80;;;21.80;48.20;;;;;;5130291;27;20496;-82
2022/11/02 01:31:49;;;;;;;10.27;4.13;;;21.80;48.20;;;;;;5126353;27;20509;-82
2022/11/02 01:34:17;;;;;;;10.43;4.30;;;21.80;48.40;;;;;;5138829;27;20471;-82
2022/11/02 01:36:45;;;;;;;12.53;4.00;;;21.80;48.30;;;;;;5136571;27;20506;-82
2022/11/02 01:39:13;;;;;;;9.17;4.17;;;21.80;48.40;;;;;;5122312;27;20451;-82
2022/11/02 01:41:40;;;;;;;8.90;3.53;;;21.80;48.60;;;;;;5120190;27;20456;-82
2022/11/02 01:44:27;;;;;;;7.60;3.77;;;21.80;48.60;;;;;;5121031;27;20555;-82
2022/11/02 01:46:59;;;;;;;5.57;3.57;;;21.80;48.50;;;;;;5116129;27;20491;-82
2022/11/02 01:49:26;;;;;;;10.77;4.20;;;21.70;48.50;;;;;;5116958;27;20467;-81
2022/11/02 01:51:56;;;;;;;9.00;3.97;;;21.80;48.70;;;;;;5131746;27;20450;-82
2022/11/02 01:54:26;;;;;;;7.00;3.47;;;21.70;48.70;;;;;;5137247;27;20442;-82
2022/11/02 01:56:56;;;;;;;5.87;3.03;;;21.70;48.60;;;;;;5107733;27;20441;-83
2022/11/02 01:59:27;;;;;;;5.10;3.37;;;21.70;48.70;;;;;;5108594;28;20428;-81
2022/11/02 02:01:55;;;;;;;7.70;3.27;;;21.70;48.70;;;;;;5121565;27;20440;-81
2022/11/02 02:04:23;;;;;;;4.53;2.50;;;21.70;48.70;;;;;;5118622;27;20492;-81
2022/11/02 02:06:51;;;;;;;9.13;3.00;;;21.70;48.70;;;;;;5132098;27;20446;-81
2022/11/02 02:09:19;;;;;;;5.87;2.97;;;21.70;48.80;;;;;;5138147;27;20466;-82
2022/11/02 02:11:47;;;;;;;3.80;2.73;;;21.70;49.00;;;;;;5124610;27;20512;-81
2022/11/02 02:14:16;;;;;;;11.73;3.30;;;21.60;48.80;;;;;;5124084;27;20471;-81
2022/11/02 02:16:59;;;;;;;5.70;2.90;;;21.60;49.00;;;;;;5112907;27;20447;-82
2022/11/02 02:19:37;;;;;;;5.73;2.77;;;21.60;48.90;;;;;;5111450;27;20449;-81
2022/11/02 02:22:34;;;;;;;5.70;2.70;;;21.60;49.00;;;;;;5134489;27;20941;-82
2022/11/02 02:25:10;;;;;;;12.73;2.97;;;21.60;48.90;;;;;;5135530;27;20443;-82
2022/11/02 02:27:51;;;;;;;6.57;2.90;;;21.50;49.00;;;;;;5115399;28;20840;-81
2022/11/02 02:30:20;;;;;;;8.93;2.77;;;21.50;49.20;;;;;;5112188;28;20465;-81
2022/11/02 02:32:49;;;;;;;9.77;2.80;;;21.50;49.20;;;;;;5112292;27;20479;-81
2022/11/02 02:35:22;;;;;;;5.07;2.40;;;21.50;49.20;;;;;;5118365;27;20450;-81
2022/11/02 02:37:53;;;;;;;6.47;2.20;;;21.50;49.10;;;;;;5135487;27;20431;-82
2022/11/02 02:40:23;;;;;;;5.80;2.77;;;21.40;49.10;;;;;;5132574;27;20925;-80
2022/11/02 02:42:54;;;;;;;7.67;2.53;;;21.50;49.30;;;;;;5134133;27;20470;-81
2022/11/02 02:45:24;;;;;;;7.73;2.50;;;21.50;49.20;;;;;;5120875;27;20453;-82
2022/11/02 02:47:58;;;;;;;5.17;2.60;;;21.50;49.30;;;;;;5127043;27;20451;-81
2022/11/02 02:50:27;;;;;;;5.67;2.27;;;21.50;49.40;;;;;;5103988;27;20446;-81
2022/11/02 02:52:55;;;;;;;4.40;2.20;;;21.50;49.20;;;;;;5128417;27;20514;-81
2022/11/02 02:55:25;;;;;;;6.23;2.50;;;21.50;49.30;;;;;;5130394;27;20448;-81
2022/11/02 02:57:55;;;;;;;4.80;1.93;;;21.50;49.40;;;;;;5117682;28;20420;-81
2022/11/02 03:00:23;;;;;;;6.70;2.17;;;21.40;49.30;;;;;;5119987;27;20480;-81
2022/11/02 03:03:00;;;;;;;6.10;2.10;;;21.40;49.30;;;;;;5125160;27;20467;-81
2022/11/02 03:05:30;;;;;;;6.23;2.10;;;21.50;49.50;;;;;;5112594;28;20462;-81
2022/11/02 03:08:00;;;;;;;8.80;2.30;;;21.40;49.40;;;;;;5119897;27;20422;-81
2022/11/02 03:10:32;;;;;;;5.40;2.27;;;21.40;49.40;;;;;;5131757;28;20562;-81
2022/11/02 03:13:19;;;;;;;7.50;2.13;;;21.40;49.20;;;;;;5132746;27;20496;-81
2022/11/02 03:15:49;;;;;;;5.60;2.13;;;21.40;49.40;;;;;;5128964;28;20451;-81
2022/11/02 03:18:19;;;;;;;7.00;2.43;;;21.40;49.40;;;;;;5111892;28;20455;-82
2022/11/02 03:20:54;;;;;;;8.57;2.20;;;21.40;49.60;;;;;;5122450;28;20445;-83
2022/11/02 03:23:26;;;;;;;9.50;2.57;;;21.40;49.50;;;;;;5115840;28;20493;-83
2022/11/02 03:25:56;;;;;;;5.23;2.20;;;21.30;49.50;;;;;;5117717;28;20418;-83
2022/11/02 03:28:28;;;;;;;3.10;2.10;;;21.40;49.50;;;;;;5115749;28;20841;-83
2022/11/02 03:30:59;;;;;;;7.50;2.33;;;21.40;49.50;;;;;;5129252;28;20511;-81
2022/11/02 03:33:29;;;;;;;9.30;2.57;;;21.40;49.40;;;;;;5136060;27;20492;-82
2022/11/02 03:36:00;;;;;;;7.57;2.07;;;21.50;49.50;;;;;;5122655;28;20452;-82
2022/11/02 03:38:31;;;;;;;3.40;1.97;;;21.50;49.40;;;;;;5112074;28;20460;-82
2022/11/02 03:41:00;;;;;;;7.17;2.50;;;21.40;49.40;;;;;;5118010;28;20440;-82
2022/11/02 03:43:29;;;;;;;4.70;1.90;;;21.40;49.50;;;;;;5116790;28;20467;-82
2022/11/02 03:45:58;;;;;;;5.57;1.83;;;21.40;49.50;;;;;;5130431;28;20421;-81
2022/11/02 03:48:29;;;;;;;4.40;2.10;;;21.50;49.40;;;;;;5119568;28;20448;-82
2022/11/02 03:50:58;;;;;;;3.93;2.00;;;21.50;49.40;;;;;;5114541;28;20463;-81
2022/11/02 03:53:27;;;;;;;3.87;2.07;;;21.50;49.40;;;;;;5114946;28;20473;-81
2022/11/02 03:55:58;;;;;;;6.10;1.77;;;21.40;49.20;;;;;;5116042;28;20489;-81
2022/11/02 03:58:26;;;;;;;8.00;1.60;;;21.40;49.40;;;;;;5127466;27;20442;-81
2022/11/02 04:00:58;;;;;;;9.10;1.97;;;21.40;49.50;;;;;;5137367;27;20470;-82
2022/11/02 04:03:25;;;;;;;3.90;2.17;;;21.40;49.50;;;;;;5131923;27;20508;-83
2022/11/02 04:05:53;;;;;;;7.23;1.97;;;21.40;49.60;;;;;;5112462;28;20436;-82
2022/11/02 04:08:25;;;;;;;8.97;2.30;;;21.40;49.70;;;;;;5124471;27;20439;-82
2022/11/02 04:16:25;;;;;;;7.67;2.10;;;21.40;50.10;;;;;;5118326;27;20503;-82
2022/11/02 04:25:14;;;;;;;7.97;2.00;;;21.40;49.80;;;;;;5125138;27;20459;-83
2022/11/02 04:27:14;;;;;;;3.97;2.20;;;21.40;49.80;;;;;;5120699;27;20425;-82
2022/11/02 04:29:47;;;;;;;6.83;2.17;;;21.40;49.90;;;;;;5117177;28;20446;-82
2022/11/02 04:33:31;;;;;;;4.90;1.83;;;21.40;49.80;;;;;;5116755;28;20456;-83
2022/11/02 04:35:07;;;;;;;5.13;2.00;;;21.40;49.90;;;;;;5118681;28;20444;-83
2022/11/02 04:40:26;;;;;;;6.30;1.90;;;21.40;49.90;;;;;;5121920;27;20443;-82
2022/11/02 04:42:54;;;;;;;7.17;2.57;;;21.40;49.90;;;;;;5122288;27;20471;-83
2022/11/02 04:45:22;;;;;;;3.27;1.63;;;21.30;49.80;;;;;;5122344;28;20422;-83
2022/11/02 04:47:51;;;;;;;2.93;1.53;;;21.30;49.80;;;;;;5120793;27;20483;-83
2022/11/02 04:50:19;;;;;;;3.27;1.90;;;21.30;49.90;;;;;;5134754;27;20474;-82
2022/11/02 04:52:50;;;;;;;5.70;1.73;;;21.30;49.80;;;;;;5131810;27;20475;-83
2022/11/02 04:55:18;;;;;;;5.80;1.93;;;21.30;50.20;;;;;;5122290;27;20452;-82
2022/11/02 04:57:47;;;;;;;4.13;1.90;;;21.30;50.60;;;;;;5117843;27;20447;-83
2022/11/02 05:00:16;;;;;;;4.47;2.00;;;21.30;50.00;;;;;;5122603;28;20410;-83
2022/11/02 05:02:45;;;;;;;4.90;1.80;;;21.30;50.20;;;;;;5104744;28;20472;-83
2022/11/02 05:05:15;;;;;;;1.97;1.47;;;21.30;50.10;;;;;;5109287;27;20476;-84
2022/11/02 05:07:43;;;;;;;5.90;1.83;;;21.20;50.10;;;;;;5125571;27;20505;-83
2022/11/02 05:10:11;;;;;;;3.80;1.57;;;21.20;50.10;;;;;;5122193;27;20479;-83
2022/11/02 05:12:40;;;;;;;2.20;1.60;;;21.20;50.20;;;;;;5121025;27;20450;-84
2022/11/02 05:15:09;;;;;;;5.57;1.83;;;21.20;50.40;;;;;;5125031;27;20423;-83
2022/11/02 05:17:37;;;;;;;4.07;1.87;;;21.20;50.30;;;;;;5121557;27;20478;-83
2022/11/02 05:20:07;;;;;;;4.50;2.13;;;21.10;50.10;;;;;;5135044;27;20436;-83
2022/11/02 05:22:37;;;;;;;3.97;1.70;;;21.10;50.40;;;;;;5133854;27;20478;-83
2022/11/02 05:25:05;;;;;;;2.40;1.70;;;21.10;50.40;;;;;;5123766;28;20455;-83
2022/11/02 05:27:34;;;;;;;2.63;1.70;;;21.00;50.50;;;;;;5123718;28;20463;-83
2022/11/02 05:30:01;;;;;;;3.10;1.70;;;21.10;50.80;;;;;;5127347;27;20516;-83
2022/11/02 05:32:29;;;;;;;6.73;1.90;;;21.10;50.80;;;;;;5121636;27;20448;-83
2022/11/02 05:34:58;;;;;;;1.70;1.60;;;21.10;50.70;;;;;;5129892;27;20448;-83
2022/11/02 05:37:25;;;;;;;5.30;1.77;;;21.10;50.60;;;;;;5116434;27;20448;-83
2022/11/02 05:39:57;;;;;;;3.77;1.83;;;21.10;50.60;;;;;;5130272;27;20448;-83
2022/11/02 05:42:24;;;;;;;4.80;1.73;;;21.10;50.70;;;;;;5124315;27;20444;-82
2022/11/02 05:44:52;;;;;;;4.17;1.77;;;21.00;50.50;;;;;;5141317;27;20442;-83
2022/11/02 05:47:20;;;;;;;3.43;1.50;;;21.00;50.80;;;;;;5124351;27;20451;-83
2022/11/02 05:49:48;;;;;;;1.50;1.40;;;21.00;50.80;;;;;;5125119;27;20451;-83
2022/11/02 05:52:16;;;;;;;2.30;1.77;;;21.00;50.70;;;;;;5131911;27;20440;-83
2022/11/02 05:54:45;;;;;;;3.23;1.80;;;21.00;50.70;;;;;;5119198;27;20477;-82
2022/11/02 05:57:15;;;;;;;3.30;1.50;;;21.00;50.60;;;;;;5129238;28;20524;-83
2022/11/02 05:59:44;;;;;;;3.33;1.47;;;21.00;50.60;;;;;;5119390;28;20444;-82
2022/11/02 06:02:16;;;;;;;3.43;1.67;;;21.00;51.30;;;;;;5130232;27;20479;-83
2022/11/02 06:04:48;;;;;;;2.50;1.60;;;21.00;50.70;;;;;;5140769;27;20477;-83
2022/11/02 06:07:16;;;;;;;2.37;1.63;;;21.00;50.50;;;;;;5113628;27;20457;-83
2022/11/02 06:09:44;;;;;;;2.33;1.50;;;20.90;50.40;;;;;;5135263;27;20444;-83
2022/11/02 06:12:13;;;;;;;3.03;1.67;;;20.90;50.60;;;;;;5132425;27;20437;-84
2022/11/02 06:14:42;;;;;;;2.27;1.83;;;20.90;50.60;;;;;;5102154;28;20464;-83
2022/11/02 06:17:09;;;;;;;3.30;2.17;;;20.90;50.70;;;;;;5109180;27;20489;-83
2022/11/02 06:19:38;;;;;;;2.40;1.50;;;20.90;50.60;;;;;;5129728;27;20448;-83
2022/11/02 06:22:05;;;;;;;3.30;1.70;;;20.90;50.70;;;;;;5123746;27;20418;-83
2022/11/02 06:24:34;;;;;;;2.33;1.47;;;20.90;50.70;;;;;;5119608;27;20879;-83
2022/11/02 06:27:02;;;;;;;2.50;1.53;;;20.90;50.90;;;;;;5105387;28;20431;-83
2022/11/02 06:29:32;;;;;;;4.97;1.50;;;20.90;50.80;;;;;;5119926;27;20452;-82
2022/11/02 06:32:00;;;;;;;2.80;1.60;;;20.90;50.60;;;;;;5121310;27;20467;-83
2022/11/02 06:34:28;;;;;;;7.60;1.67;;;20.80;50.80;;;;;;5125868;27;20472;-81
2022/11/02 06:36:56;;;;;;;2.60;1.43;;;20.90;50.70;;;;;;5120698;27;20447;-82
2022/11/02 06:39:23;;;;;;;2.30;1.47;;;20.90;50.60;;;;;;5135859;27;20443;-83
2022/11/02 06:41:52;;;;;;;7.50;2.03;;;20.90;50.60;;;;;;5123905;27;20458;-83
2022/11/02 06:44:20;;;;;;;2.97;1.73;;;20.80;50.80;;;;;;5125305;27;20477;-83
2022/11/02 06:46:49;;;;;;;2.00;1.33;;;20.80;50.80;;;;;;5124293;27;20457;-83
2022/11/02 06:49:17;;;;;;;3.70;2.10;;;20.80;50.70;;;;;;5122415;27;20456;-83
2022/11/02 06:51:45;;;;;;;3.70;1.70;;;20.80;51.00;;;;;;5123051;27;20534;-83
2022/11/02 06:54:13;;;;;;;3.47;1.47;;;20.80;51.00;;;;;;5125104;27;20474;-82
2022/11/02 06:56:41;;;;;;;4.40;1.70;;;20.90;51.00;;;;;;5119680;27;20455;-82
2022/11/02 06:59:09;;;;;;;4.93;1.70;;;20.90;50.90;;;;;;5113693;27;20455;-83
2022/11/02 07:01:37;;;;;;;4.50;2.03;;;21.00;51.00;;;;;;5117781;28;20459;-83
2022/11/02 07:04:07;;;;;;;2.07;1.60;;;21.00;50.90;;;;;;5102400;28;20498;-83
2022/11/02 07:06:35;;;;;;;3.20;2.00;;;21.00;50.90;;;;;;5121599;27;20450;-83
2022/11/02 07:09:03;;;;;;;4.93;1.80;;;21.00;50.80;;;;;;5126302;27;20446;-83
2022/11/02 07:11:32;;;;;;;3.13;1.80;;;21.10;50.90;;;;;;5122466;28;20463;-82
2022/11/02 07:13:59;;;;;;;2.63;1.70;;;21.10;50.90;;;;;;5117316;28;20545;-84
2022/11/02 07:16:27;;;;;;;6.77;2.00;;;21.10;50.80;;;;;;5132127;28;20472;-83
2022/11/02 07:18:55;;;;;;;1.53;1.43;;;21.10;50.90;;;;;;5127291;28;20462;-83
2022/11/02 07:21:25;;;;;;;3.63;1.70;;;21.10;50.90;;;;;;5121632;28;20444;-84
2022/11/02 07:23:53;;;;;;;2.20;1.60;;;21.20;50.80;;;;;;5129446;28;20470;-83
2022/11/02 07:26:21;;;;;;;5.40;2.37;;;21.20;50.80;;;;;;5131615;28;20444;-83
2022/11/02 07:28:49;;;;;;;3.70;1.70;;;21.20;50.80;;;;;;5121058;28;20937;-83
2022/11/02 07:31:25;;;;;;;3.60;1.67;;;21.10;50.80;;;;;;5128378;28;20466;-82
2022/11/02 07:33:53;;;;;;;2.23;1.77;;;21.20;50.90;;;;;;5136118;27;20467;-83
2022/11/02 07:36:21;;;;;;;3.97;1.73;;;21.20;50.90;;;;;;5142101;27;20454;-83
2022/11/02 07:38:51;;;;;;;4.33;1.87;;;21.20;51.00;;;;;;5126874;27;20477;-83
2022/11/02 07:41:19;;;;;;;3.67;2.00;;;21.20;50.90;;;;;;5121857;27;20451;-83
2022/11/02 07:43:47;;;;;;;5.03;1.83;;;21.20;51.20;;;;;;5125160;27;20500;-83
2022/11/02 07:46:15;;;;;;;5.70;2.00;;;21.20;51.00;;;;;;5129619;27;20508;-83
2022/11/02 07:48:43;;;;;;;4.00;1.60;;;21.30;51.00;;;;;;5137645;27;20511;-83
2022/11/02 07:51:11;;;;;;;4.10;1.83;;;21.30;51.10;;;;;;5132519;27;20455;-83
2022/11/02 07:53:39;;;;;;;5.13;1.70;;;21.30;50.80;;;;;;5124387;27;21072;-82
2022/11/02 07:56:09;;;;;;;2.43;1.53;;;21.30;51.00;;;;;;5118780;27;20463;-83
2022/11/02 07:58:37;;;;;;;4.23;1.67;;;21.30;51.10;;;;;;5123220;27;20478;-82
2022/11/02 08:01:05;;;;;;;5.40;1.80;;;21.40;51.00;;;;;;5119653;27;20430;-83
2022/11/02 08:03:33;;;;;;;3.77;1.77;;;21.50;51.20;;;;;;5136075;27;20467;-83
2022/11/02 08:06:01;;;;;;;6.03;1.93;;;21.50;51.10;;;;;;5141211;27;20447;-82
2022/11/02 08:08:30;;;;;;;2.13;1.40;;;21.60;50.90;;;;;;5143062;27;20445;-83
2022/11/02 08:11:03;;;;;;;4.70;2.00;;;21.60;51.00;;;;;;5117805;27;20433;-83
2022/11/02 08:13:33;;;;;;;7.03;2.00;;;21.60;51.00;;;;;;5119108;27;20481;-83
2022/11/02 08:16:01;;;;;;;3.43;2.03;;;21.70;51.10;;;;;;5123883;27;20447;-83
2022/11/02 08:18:29;;;;;;;3.83;1.97;;;21.70;50.90;;;;;;5126350;27;20406;-82
2022/11/02 08:20:57;;;;;;;2.63;1.70;;;21.80;50.90;;;;;;5123188;28;20447;-82
2022/11/02 08:23:26;;;;;;;2.10;1.40;;;21.80;50.90;;;;;;5121604;28;20426;-82
2022/11/02 08:25:54;;;;;;;1.67;1.33;;;21.80;50.80;;;;;;5119852;28;20458;-82
2022/11/02 08:28:24;;;;;;;6.40;2.03;;;21.80;50.70;;;;;;5112430;28;20527;-82
2022/11/02 08:30:53;;;;;;;2.07;1.77;;;21.80;50.90;;;;;;5119458;28;20432;-82
2022/11/02 08:33:21;;;;;;;2.70;1.60;;;21.80;50.80;;;;;;5140970;27;20445;-82
2022/11/02 08:35:50;;;;;;;5.57;1.70;;;21.80;50.80;;;;;;5107041;27;20452;-81
2022/11/02 08:38:21;;;;;;;4.20;1.87;;;21.80;50.90;;;;;;5132353;27;20458;-80
2022/11/02 08:40:49;;;;;;;7.03;2.50;;;21.80;50.80;;;;;;5112179;27;20527;-80
2022/11/02 08:43:17;;;;;;;2.80;1.63;;;21.70;50.70;;;;;;5118686;27;20457;-82
2022/11/02 08:45:45;;;;;;;4.93;1.70;;;21.80;50.70;;;;;;5112691;27;20482;-81
2022/11/02 08:48:35;;;;;;;5.53;1.73;;;21.80;50.60;;;;;;5122893;27;20426;-81
2022/11/02 08:51:04;;;;;;;3.23;1.40;;;21.70;50.30;;;;;;5120126;27;20451;-82
2022/11/02 08:53:32;;;;;;;5.40;2.37;;;21.80;50.50;;;;;;5119694;28;21058;-82
2022/11/02 08:56:00;;;;;;;4.70;1.77;;;21.80;50.30;;;;;;5129815;27;20463;-82
2022/11/02 08:58:28;;;;;;;6.57;2.07;;;21.80;50.30;;;;;;5119359;28;20466;-82
2022/11/02 09:00:57;;;;;;;2.87;1.77;;;21.80;50.40;;;;;;5119772;28;20451;-82
2022/11/02 09:03:25;;;;;;;5.00;1.70;;;21.80;50.30;;;;;;5122368;28;20475;-80
2022/11/02 09:05:59;;;;;;;5.00;2.17;;;21.80;50.40;;;;;;5126418;28;20415;-82
2022/11/02 09:08:27;;;;;;;9.20;1.80;;;21.80;50.60;;;;;;5124011;28;20440;-82
2022/11/02 09:10:58;;;;;;;2.80;1.33;;;21.90;50.70;;;;;;5123605;28;20464;-82
2022/11/02 09:13:26;;;;;;;3.97;1.87;;;22.00;50.90;;;;;;5121639;28;20475;-82
2022/11/02 09:15:55;;;;;;;3.30;1.70;;;22.20;50.60;;;;;;5112217;28;20444;-82
2022/11/02 09:18:23;;;;;;;3.13;1.50;;;22.20;50.30;;;;;;5121406;28;20399;-82
2022/11/02 09:20:51;;;;;;;4.77;1.90;;;22.30;50.40;;;;;;5121069;28;20455;-81
2022/11/02 09:23:21;;;;;;;3.40;1.50;;;22.50;50.60;;;;;;5121831;28;20820;-82
2022/11/02 09:25:49;;;;;;;1.70;1.60;;;22.60;50.30;;;;;;5122399;28;20435;-82
2022/11/02 09:28:17;;;;;;;2.73;1.60;;;22.90;50.30;;;;;;5121420;28;20442;-81
2022/11/02 09:30:45;;;;;;;4.20;1.37;;;23.00;50.00;;;;;;5112074;28;20444;-81
2022/11/02 09:33:13;;;;;;;2.90;1.67;;;22.90;49.90;;;;;;5121291;28;20449;-81
2022/11/02 09:35:42;;;;;;;2.80;1.43;;;22.90;50.10;;;;;;5120380;28;20824;-81
2022/11/02 09:38:10;;;;;;;4.60;1.90;;;23.00;50.20;;;;;;5122138;28;20410;-81
2022/11/02 09:40:40;;;;;;;3.47;1.57;;;23.00;50.20;;;;;;5120337;28;20410;-81
2022/11/02 09:43:13;;;;;;;2.93;1.67;;;23.20;50.70;;;;;;5120269;28;20463;-81
2022/11/02 09:45:48;;;;;;;4.10;1.90;;;23.50;50.50;;;;;;5120113;28;20410;-80
2022/11/02 09:48:17;;;;;;;1.77;1.40;;;23.80;50.50;;;;;;5117583;28;20413;-81
2022/11/02 09:50:56;;;;;;;4.87;1.70;;;24.10;50.20;;;;;;5120685;28;20398;-81
2022/11/02 09:53:33;;;;;;;2.63;1.60;;;24.50;49.80;;;;;;5120720;28;20505;-81
2022/11/02 09:56:02;;;;;;;4.50;1.57;;;24.70;49.40;;;;;;5119829;28;20455;-81
2022/11/02 09:58:34;;;;;;;5.03;1.73;;;24.80;49.30;;;;;;5121104;28;20418;-80
2022/11/02 10:01:05;;;;;;;3.50;1.27;;;24.80;49.00;;;;;;5120590;28;20407;-81
2022/11/02 10:03:39;;;;;;;2.33;1.60;;;24.70;49.10;;;;;;5110146;28;20449;-81
2022/11/02 10:06:08;;;;;;;3.07;1.40;;;24.60;49.20;;;;;;5118557;28;20440;-81
2022/11/02 10:08:40;;;;;;;2.60;1.90;;;24.50;49.50;;;;;;5118855;28;20425;-80
2022/11/02 10:11:17;;;;;;;4.03;1.70;;;24.30;49.30;;;;;;5117751;28;20513;-80
2022/11/02 10:13:46;;;;;;;2.07;1.30;;;24.30;49.40;;;;;;5118073;28;20453;-81
2022/11/02 10:16:21;;;;;;;2.57;1.67;;;24.20;49.50;;;;;;5118404;28;20470;-80
2022/11/02 10:18:49;;;;;;;2.90;1.70;;;24.10;49.70;;;;;;5119224;28;20439;-81
2022/11/02 10:21:19;;;;;;;2.30;1.77;;;24.10;50.00;;;;;;5108815;28;20426;-81
2022/11/02 10:23:49;;;;;;;3.70;1.57;;;23.90;49.60;;;;;;5118282;28;20459;-81
2022/11/02 10:26:27;;;;;;;4.97;1.70;;;23.90;49.80;;;;;;5117922;28;20462;-80
2022/11/02 10:28:58;;;;;;;3.30;1.70;;;23.90;49.90;;;;;;5118292;28;20439;-80
2022/11/02 10:31:29;;;;;;;5.10;1.53;;;23.90;50.10;;;;;;5118496;28;20414;-82
2022/11/02 10:33:59;;;;;;;4.57;1.60;;;24.00;49.90;;;;;;5117595;28;20458;-80
2022/11/02 10:36:36;;;;;;;2.27;1.77;;;24.10;50.30;;;;;;5108322;28;20521;-83
2022/11/02 10:39:17;;;;;;;4.27;1.73;;;24.20;49.70;;;;;;5117296;28;20459;-79
2022/11/02 10:41:54;;;;;;;3.17;1.73;;;24.30;50.30;;;;;;5116895;28;20442;-80
2022/11/02 10:44:29;;;;;;;3.30;1.57;;;24.50;50.30;;;;;;5116727;28;20467;-80
2022/11/02 10:47:04;;;;;;;4.70;1.43;;;24.80;49.60;;;;;;5116635;28;20411;-80
2022/11/02 10:49:43;;;;;;;2.13;1.47;;;25.00;49.20;;;;;;5116707;28;20418;-80
2022/11/02 10:52:12;;;;;;;2.40;1.50;;;25.00;49.20;;;;;;5107808;28;20433;-80
2022/11/02 10:54:40;;;;;;;2.60;1.50;;;25.20;49.30;;;;;;5095973;28;20448;-80
2022/11/02 10:57:11;;;;;;;5.77;1.30;;;25.40;48.80;;;;;;5096514;28;20506;-80
2022/11/02 10:59:39;;;;;;;5.80;1.60;;;25.40;48.20;;;;;;5098167;28;20407;-80
2022/11/02 11:02:12;;;;;;;5.40;1.67;;;25.20;48.40;;;;;;5097000;28;20433;-80
2022/11/02 11:04:40;;;;;;;2.70;1.37;;;25.10;48.50;;;;;;5096205;28;20456;-80
2022/11/02 11:07:13;;;;;;;2.70;1.77;;;24.90;48.70;;;;;;5096822;28;20436;-80
2022/11/02 11:09:47;;;;;;;2.30;1.50;;;24.80;48.60;;;;;;5105200;28;20427;-80
2022/11/02 11:12:19;;;;;;;3.10;1.80;;;24.60;48.70;;;;;;5117053;28;20418;-80
2022/11/02 11:14:48;;;;;;;2.87;1.70;;;24.60;49.00;;;;;;5117575;28;20558;-80
2022/11/02 11:17:37;;;;;;;4.83;1.33;;;24.60;49.00;;;;;;5117078;28;20407;-80
2022/11/02 11:20:31;;;;;;;4.93;1.80;;;24.60;49.10;;;;;;5117271;28;20435;-80
2022/11/02 11:23:09;;;;;;;3.70;1.50;;;24.90;49.80;;;;;;5117283;28;20467;-80
2022/11/02 11:25:37;;;;;;;2.70;1.50;;;25.70;49.40;;;;;;5115819;28;20862;-80
2022/11/02 11:28:21;;;;;;;2.90;1.93;;;26.10;48.20;;;;;;5108623;28;20444;-80
2022/11/02 11:30:50;;;;;;;2.73;1.57;;;26.30;47.40;;;;;;5119128;28;20417;-80
2022/11/02 11:33:27;;;;;;;1.93;1.53;;;27.00;47.70;;;;;;5116956;28;20541;-80
2022/11/02 11:35:55;;;;;;;1.90;1.53;;;27.70;46.60;;;;;;5116803;28;20443;-80
2022/11/02 11:38:24;;;;;;;2.60;1.43;;;28.00;45.60;;;;;;5116234;28;20413;-80
2022/11/02 11:40:53;;;;;;;2.00;1.57;;;28.50;45.30;;;;;;5116788;28;20527;-80
2022/11/02 11:43:24;;;;;;;2.63;1.23;;;28.70;44.70;;;;;;5107483;28;20447;-80
2022/11/02 11:45:56;;;;;;;3.70;1.60;;;29.20;44.50;;;;;;5117148;28;20444;-80
2022/11/02 11:48:35;;;;;;;1.90;1.43;;;29.30;43.20;;;;;;5116379;28;20440;-80
2022/11/02 11:51:03;;;;;;;2.73;1.53;;;28.90;43.00;;;;;;5118695;28;20432;-80
2022/11/02 11:53:30;;;;;;;2.97;1.70;;;28.50;43.40;;;;;;5117437;28;20453;-80
2022/11/02 11:55:59;;;;;;;2.30;1.30;;;28.00;43.90;;;;;;5116138;28;20436;-81
2022/11/02 11:58:29;;;;;;;2.57;1.73;;;27.70;44.50;;;;;;5115498;28;20436;-80
2022/11/02 12:01:06;;;;;;;2.03;1.43;;;27.70;45.30;;;;;;5107898;28;20395;-80
2022/11/02 12:03:50;;;;;;;2.30;1.33;;;27.90;45.20;;;;;;5116976;28;20455;-80
2022/11/02 12:06:23;;;;;;;5.20;1.43;;;28.20;45.50;;;;;;5116969;28;20413;-80
2022/11/02 12:08:53;;;;;;;2.37;1.40;;;28.70;45.00;;;;;;5116437;28;20411;-79
2022/11/02 12:11:30;;;;;;;2.30;1.57;;;29.10;44.40;;;;;;5115529;28;20522;-79
2022/11/02 12:14:06;;;;;;;2.23;1.30;;;29.70;43.80;;;;;;5123823;28;20516;-79
2022/11/02 12:16:43;;;;;;;2.30;1.47;;;30.10;42.90;;;;;;5110759;28;21006;-80
2022/11/02 12:19:17;;;;;;;3.37;1.60;;;30.60;42.50;;;;;;5119756;28;20406;-79
2022/11/02 12:21:51;;;;;;;2.23;1.50;;;31.00;42.00;;;;;;5119805;28;20489;-80
2022/11/02 12:24:43;;;;;;;2.60;1.70;;;31.10;41.50;;;;;;5121497;28;20462;-80
2022/11/02 12:27:19;;;;;;;2.10;1.57;;;31.40;41.40;;;;;;5094878;28;20447;-80
2022/11/02 12:30:03;;;;;;;3.70;1.90;;;31.70;41.10;;;;;;5120619;28;20448;-80
2022/11/02 12:33:01;;;;;;;3.13;2.10;;;31.60;40.90;;;;;;5111962;28;20856;-80
2022/11/02 12:35:37;;;;;;;1.77;1.67;;;31.90;40.70;;;;;;5105391;28;20546;-80
2022/11/02 12:38:13;;;;;;;2.97;1.77;;;32.10;40.20;;;;;;5120402;28;20880;-80
2022/11/02 12:40:45;;;;;;;1.60;1.50;;;32.30;40.10;;;;;;5121258;28;20439;-80
2022/11/02 12:43:23;;;;;;;3.17;1.40;;;32.30;40.20;;;;;;5120434;28;20468;-80
2022/11/02 12:45:58;;;;;;;1.60;1.50;;;32.60;39.80;;;;;;5114379;28;20452;-81
2022/11/02 12:48:30;;;;;;;1.57;1.47;;;32.80;39.50;;;;;;5118815;28;20435;-80
2022/11/02 12:51:01;;;;;;;2.00;1.47;;;33.00;39.30;;;;;;5120968;28;21003;-81
2022/11/02 12:53:36;;;;;;;1.80;1.43;;;33.10;38.90;;;;;;5121441;28;20468;-81
2022/11/02 12:56:05;;;;;;;2.30;2.10;;;33.30;39.00;;;;;;5118559;28;20954;-80
2022/11/02 12:58:34;;;;;;;2.20;1.70;;;33.40;38.90;;;;;;5119128;28;20446;-81
2022/11/02 13:01:07;;;;;;;2.30;1.67;;;33.50;38.70;;;;;;5119639;28;20451;-81
2022/11/02 13:03:44;;;;;;;3.10;2.00;;;33.50;38.60;;;;;;5112860;28;20447;-81
2022/11/02 13:06:13;;;;;;;2.83;1.90;;;33.60;38.40;;;;;;5123250;28;20491;-80
2022/11/02 13:08:44;;;;;;;2.40;1.77;;;33.70;38.40;;;;;;5123171;28;20428;-81
2022/11/02 13:11:14;;;;;;;5.47;2.40;;;33.70;38.00;;;;;;5121980;28;20489;-81
2022/11/02 13:13:43;;;;;;;2.07;1.93;;;33.20;38.00;;;;;;5122567;28;20443;-80
2022/11/02 13:16:14;;;;;;;2.10;1.90;;;33.10;38.80;;;;;;5121394;28;20479;-80